Time;durP1;ratioP1;P1;durP2;ratioP2;P2;SDS_P1;SDS_P2;PMS_P1;PMS_P2;Temp;Humidity;BMP_temperature;BMP_pressure;BME280_temperature;BME280_humidity;BME280_pressure;Samples;Min_cycle;Max_cycle;Signal;HPM_P1;HPM_P2
2022/07/08 00:01:08;;;;;;;;;;;14.40;99.90;;;;;;4802233;29;19968;-70
2022/07/08 00:03:33;;;;;;;;;;;14.40;99.90;;;;;;4787781;29;19933;-70
2022/07/08 00:05:59;;;;;;;;;;;14.40;99.90;;;;;;4802237;29;19998;-72
2022/07/08 00:08:26;;;;;;;;;;;14.40;99.90;;;;;;4802282;29;19926;-72
2022/07/08 00:10:52;;;;;;;;;;;14.40;99.90;;;;;;4802049;29;19925;-72
2022/07/08 00:13:17;;;;;;;;;;;14.40;99.90;;;;;;4802290;29;20288;-68
2022/07/08 00:15:43;;;;;;;;;;;14.30;99.90;;;;;;4802259;29;20001;-73
2022/07/08 00:18:08;;;;;;;;;;;14.30;99.90;;;;;;4771550;30;19921;-72
2022/07/08 00:20:34;;;;;;;;;;;14.30;99.90;;;;;;4801615;29;20411;-70
2022/07/08 00:22:59;;;;;;;;;;;14.30;99.90;;;;;;4801819;29;19921;-72
2022/07/08 00:25:25;;;;;;;;;;;14.20;99.90;;;;;;4801707;29;20367;-72
2022/07/08 00:27:50;;;;;;;;;;;14.20;99.90;;;;;;4801651;29;19929;-72
2022/07/08 00:30:16;;;;;;;;;;;14.10;99.90;;;;;;4801980;29;19925;-70
2022/07/08 00:32:41;;;;;;;;;;;14.10;99.90;;;;;;4801393;29;20439;-70
2022/07/08 00:35:07;;;;;;;;;;;14.10;99.90;;;;;;4801862;29;19932;-71
2022/07/08 00:37:32;;;;;;;;;;;14.10;99.90;;;;;;4802178;29;19932;-72
2022/07/08 00:39:58;;;;;;;;;;;14.10;99.90;;;;;;4804491;29;20383;-73
2022/07/08 00:42:23;;;;;;;;;;;14.20;99.90;;;;;;4791418;29;20283;-73
2022/07/08 00:44:49;;;;;;;;;;;14.00;99.90;;;;;;4805251;29;19925;-72
2022/07/08 00:47:14;;;;;;;;;;;14.00;99.90;;;;;;4789920;30;20037;-71
2022/07/08 00:49:41;;;;;;;;;;;14.00;99.90;;;;;;4804940;29;19926;-71
2022/07/08 00:52:07;;;;;;;;;;;14.00;99.90;;;;;;4805185;29;19925;-70
2022/07/08 00:54:33;;;;;;;;;;;14.10;99.90;;;;;;4804991;29;20348;-72
2022/07/08 00:56:59;;;;;;;;;;;14.00;99.90;;;;;;4790917;29;19932;-71
2022/07/08 00:59:25;;;;;;;;;;;14.00;99.90;;;;;;4804941;29;20020;-70
2022/07/08 01:01:51;;;;;;;;;;;14.00;99.90;;;;;;4804611;29;20016;-70
2022/07/08 01:04:16;;;;;;;;;;;14.10;99.90;;;;;;4805360;29;19926;-71
2022/07/08 01:06:42;;;;;;;;;;;13.90;99.90;;;;;;4804612;29;20008;-72
2022/07/08 01:09:08;;;;;;;;;;;13.90;99.90;;;;;;4789536;29;19974;-73
2022/07/08 01:11:34;;;;;;;;;;;13.80;99.90;;;;;;4804638;29;19993;-70
2022/07/08 01:14:00;;;;;;;;;;;13.80;99.90;;;;;;4804537;29;19941;-72
2022/07/08 01:16:25;;;;;;;;;;;13.80;99.90;;;;;;4789895;29;19929;-71
2022/07/08 01:18:51;;;;;;;;;;;13.70;99.90;;;;;;4774144;30;19929;-72
2022/07/08 01:21:16;;;;;;;;;;;13.60;99.90;;;;;;4804414;29;19934;-71
2022/07/08 01:23:42;;;;;;;;;;;13.60;99.90;;;;;;4789185;30;19928;-71
2022/07/08 01:26:12;;;;;;;;;;;13.50;99.90;;;;;;4789348;30;19922;-70
2022/07/08 01:28:38;;;;;;;;;;;13.50;99.90;;;;;;4804136;29;19925;-71
2022/07/08 01:31:04;;;;;;;;;;;13.50;99.90;;;;;;4804636;29;19926;-70
2022/07/08 01:33:29;;;;;;;;;;;13.50;99.90;;;;;;4804021;29;19925;-72
2022/07/08 01:35:55;;;;;;;;;;;13.50;99.90;;;;;;4789480;30;20008;-71
2022/07/08 01:38:20;;;;;;;;;;;13.40;99.90;;;;;;4804674;29;19929;-73
2022/07/08 01:40:46;;;;;;;;;;;13.30;99.90;;;;;;4804701;29;20423;-71
2022/07/08 01:43:12;;;;;;;;;;;13.30;99.90;;;;;;4790168;29;19984;-70
2022/07/08 01:45:37;;;;;;;;;;;13.30;99.90;;;;;;4789259;29;19929;-70
2022/07/08 01:48:03;;;;;;;;;;;13.20;99.90;;;;;;4803784;29;20449;-72
2022/07/08 01:50:28;;;;;;;;;;;13.20;99.90;;;;;;4790020;29;19932;-70
2022/07/08 01:52:54;;;;;;;;;;;13.20;99.90;;;;;;4790107;29;19926;-70
2022/07/08 01:55:19;;;;;;;;;;;13.10;99.90;;;;;;4790494;29;20387;-71
2022/07/08 01:57:45;;;;;;;;;;;13.10;99.90;;;;;;4804085;29;19925;-70
2022/07/08 02:00:11;;;;;;;;;;;13.00;99.90;;;;;;4790404;29;19929;-69
2022/07/08 02:02:36;;;;;;;;;;;13.00;99.90;;;;;;4803139;29;20371;-71
2022/07/08 02:05:02;;;;;;;;;;;13.00;99.90;;;;;;4804041;29;19926;-71
2022/07/08 02:07:28;;;;;;;;;;;13.00;99.90;;;;;;4789970;29;19925;-72
2022/07/08 02:09:53;;;;;;;;;;;12.90;99.90;;;;;;4773929;29;20295;-71
2022/07/08 02:12:19;;;;;;;;;;;12.90;99.90;;;;;;4803374;29;19983;-72
2022/07/08 02:14:48;;;;;;;;;;;12.90;99.90;;;;;;4790030;29;20291;-72
2022/07/08 02:17:14;;;;;;;;;;;12.90;99.90;;;;;;4772997;30;20029;-69
2022/07/08 02:19:40;;;;;;;;;;;12.90;99.90;;;;;;4803635;29;19982;-70
2022/07/08 02:22:06;;;;;;;;;;;12.80;99.90;;;;;;4788128;29;19988;-70
2022/07/08 02:24:32;;;;;;;;;;;12.80;99.90;;;;;;4790128;29;19964;-72
2022/07/08 02:26:57;;;;;;;;;;;12.80;99.90;;;;;;4803363;29;20371;-72
2022/07/08 02:29:23;;;;;;;;;;;12.80;99.90;;;;;;4803560;29;19933;-71
2022/07/08 02:31:48;;;;;;;;;;;12.80;99.90;;;;;;4802865;29;20023;-72
2022/07/08 02:34:14;;;;;;;;;;;12.70;99.90;;;;;;4803412;29;19948;-71
2022/07/08 02:36:39;;;;;;;;;;;12.70;99.90;;;;;;4803080;29;19929;-73
2022/07/08 02:39:04;;;;;;;;;;;12.70;99.90;;;;;;4802969;29;19921;-72
2022/07/08 02:41:30;;;;;;;;;;;12.70;99.90;;;;;;4789250;29;19925;-72
2022/07/08 02:43:56;;;;;;;;;;;12.60;99.90;;;;;;4788146;29;19921;-71
2022/07/08 02:46:21;;;;;;;;;;;12.60;99.90;;;;;;4789133;29;19948;-73
2022/07/08 02:48:47;;;;;;;;;;;12.60;99.90;;;;;;4802913;29;20021;-71
2022/07/08 02:51:12;;;;;;;;;;;12.50;99.90;;;;;;4803296;29;20399;-70
2022/07/08 02:53:38;;;;;;;;;;;12.70;99.90;;;;;;4803245;29;19965;-71
2022/07/08 02:56:03;;;;;;;;;;;12.50;99.90;;;;;;4789466;29;19926;-71
2022/07/08 02:58:29;;;;;;;;;;;12.50;99.90;;;;;;4802695;29;19987;-71
2022/07/08 03:00:54;;;;;;;;;;;12.50;99.90;;;;;;4787427;29;19926;-72
2022/07/08 03:03:20;;;;;;;;;;;12.50;99.90;;;;;;4802214;29;19925;-71
2022/07/08 03:05:45;;;;;;;;;;;12.50;99.90;;;;;;4787859;29;19926;-72
2022/07/08 03:08:11;;;;;;;;;;;12.50;99.90;;;;;;4788645;29;19995;-72
2022/07/08 03:10:36;;;;;;;;;;;12.60;99.90;;;;;;4788666;29;19988;-71
2022/07/08 03:13:02;;;;;;;;;;;12.50;99.90;;;;;;4802299;29;19922;-70
2022/07/08 03:15:27;;;;;;;;;;;12.50;99.90;;;;;;4802852;29;19984;-70
2022/07/08 03:17:53;;;;;;;;;;;12.50;99.90;;;;;;4801885;29;19925;-70
2022/07/08 03:20:18;;;;;;;;;;;12.50;99.90;;;;;;4788417;29;20016;-72
2022/07/08 03:22:44;;;;;;;;;;;12.40;99.90;;;;;;4802237;29;19933;-71
2022/07/08 03:25:10;;;;;;;;;;;12.40;99.90;;;;;;4787587;29;19925;-71
2022/07/08 03:27:35;;;;;;;;;;;12.40;99.90;;;;;;4787089;29;19925;-71
2022/07/08 03:30:01;;;;;;;;;;;12.30;99.90;;;;;;4788642;29;20028;-72
2022/07/08 03:32:28;;;;;;;;;;;12.30;99.90;;;;;;4801592;29;19931;-72
2022/07/08 03:34:53;;;;;;;;;;;12.30;99.90;;;;;;4802632;29;20315;-72
2022/07/08 03:37:19;;;;;;;;;;;12.30;99.90;;;;;;4801921;29;19969;-71
2022/07/08 03:39:45;;;;;;;;;;;12.20;99.90;;;;;;4787188;29;19928;-71
2022/07/08 03:42:10;;;;;;;;;;;12.20;99.90;;;;;;4801835;29;20008;-72
2022/07/08 03:44:35;;;;;;;;;;;12.20;99.90;;;;;;4802012;29;19921;-73
2022/07/08 03:47:01;;;;;;;;;;;12.30;99.90;;;;;;4802129;29;19921;-70
2022/07/08 03:49:26;;;;;;;;;;;12.30;99.90;;;;;;4787382;29;20406;-70
2022/07/08 03:51:53;;;;;;;;;;;12.40;99.90;;;;;;4786911;29;19926;-71
2022/07/08 03:54:19;;;;;;;;;;;12.40;99.90;;;;;;4802080;29;19925;-71
2022/07/08 03:56:44;;;;;;;;;;;12.30;99.90;;;;;;4801864;29;19926;-70
2022/07/08 03:59:10;;;;;;;;;;;12.40;99.90;;;;;;4801784;29;19929;-69
2022/07/08 04:01:35;;;;;;;;;;;12.40;99.90;;;;;;4786496;29;19925;-69
2022/07/08 04:04:01;;;;;;;;;;;12.40;99.90;;;;;;4802070;29;19948;-68
2022/07/08 04:06:26;;;;;;;;;;;12.40;99.90;;;;;;4788164;29;19932;-71
2022/07/08 04:08:52;;;;;;;;;;;12.50;99.90;;;;;;4801528;29;20012;-70
2022/07/08 04:11:17;;;;;;;;;;;12.50;99.90;;;;;;4788208;29;19932;-70
2022/07/08 04:13:43;;;;;;;;;;;12.60;99.90;;;;;;4802877;29;20337;-71
2022/07/08 04:16:12;;;;;;;;;;;12.60;99.90;;;;;;4805627;29;20298;-72
2022/07/08 04:18:38;;;;;;;;;;;12.60;99.90;;;;;;4791376;29;19928;-72
2022/07/08 04:21:04;;;;;;;;;;;12.70;99.90;;;;;;4790132;29;20004;-72
2022/07/08 04:23:29;;;;;;;;;;;12.80;99.90;;;;;;4805195;29;19922;-71
2022/07/08 04:25:55;;;;;;;;;;;12.90;99.90;;;;;;4805274;29;19931;-71
2022/07/08 04:28:20;;;;;;;;;;;12.90;99.90;;;;;;4805159;29;20308;-71
2022/07/08 04:30:46;;;;;;;;;;;12.90;99.90;;;;;;4805795;29;20012;-71
2022/07/08 04:33:11;;;;;;;;;;;13.00;99.90;;;;;;4804943;29;20363;-70
2022/07/08 04:35:37;;;;;;;;;;;13.00;99.90;;;;;;4805292;29;19971;-72
2022/07/08 04:38:03;;;;;;;;;;;13.00;99.90;;;;;;4804934;29;20410;-70
2022/07/08 04:40:28;;;;;;;;;;;13.10;99.90;;;;;;4805091;29;19974;-72
2022/07/08 04:42:54;;;;;;;;;;;13.20;99.90;;;;;;4790154;29;19978;-70
2022/07/08 04:45:20;;;;;;;;;;;13.10;99.90;;;;;;4805193;29;20387;-72
2022/07/08 04:47:46;;;;;;;;;;;13.20;99.90;;;;;;4790938;29;19926;-74
2022/07/08 04:50:11;;;;;;;;;;;13.30;99.90;;;;;;4804883;29;19929;-72
2022/07/08 04:52:37;;;;;;;;;;;13.40;99.90;;;;;;4804752;29;20283;-71
2022/07/08 04:55:02;;;;;;;;;;;13.50;99.90;;;;;;4805306;29;19961;-73
2022/07/08 04:57:32;;;;;;;;;;;13.60;99.90;;;;;;4804611;29;19922;-73
2022/07/08 05:00:01;;;;;;;;;;;13.70;99.90;;;;;;4804718;29;19926;-70
2022/07/08 05:02:27;;;;;;;;;;;13.80;99.90;;;;;;4807212;29;20263;-72
2022/07/08 05:04:52;;;;;;;;;;;13.80;99.90;;;;;;4792911;29;19932;-73
2022/07/08 05:07:18;;;;;;;;;;;13.80;99.90;;;;;;4792312;29;19983;-70
2022/07/08 05:09:43;;;;;;;;;;;13.80;99.90;;;;;;4792482;29;19932;-72
2022/07/08 05:12:09;;;;;;;;;;;13.80;99.90;;;;;;4792565;29;19967;-72
2022/07/08 05:14:34;;;;;;;;;;;13.70;99.90;;;;;;4777958;29;20345;-73
2022/07/08 05:17:00;;;;;;;;;;;13.80;99.90;;;;;;4792063;29;20422;-71
2022/07/08 05:19:25;;;;;;;;;;;13.90;99.90;;;;;;4792634;29;19932;-70
2022/07/08 05:21:51;;;;;;;;;;;14.00;99.90;;;;;;4789421;29;19929;-72
2022/07/08 05:24:16;;;;;;;;;;;14.10;99.90;;;;;;4789399;29;19978;-70
2022/07/08 05:26:42;;;;;;;;;;;14.20;99.90;;;;;;4789473;30;20367;-71
2022/07/08 05:29:07;;;;;;;;;;;14.30;99.90;;;;;;4789560;29;19929;-71
2022/07/08 05:31:33;;;;;;;;;;;14.50;99.90;;;;;;4789962;29;20016;-71
2022/07/08 05:33:58;;;;;;;;;;;14.50;99.90;;;;;;4774522;30;19984;-72
2022/07/08 05:36:24;;;;;;;;;;;14.70;99.90;;;;;;4789366;29;19926;-70
2022/07/08 05:38:49;;;;;;;;;;;14.90;99.90;;;;;;4790500;29;19925;-70
2022/07/08 05:41:15;;;;;;;;;;;15.10;99.90;;;;;;4774298;30;19937;-72
2022/07/08 05:43:41;;;;;;;;;;;15.20;99.90;;;;;;4789126;30;19951;-70
2022/07/08 05:46:06;;;;;;;;;;;15.50;99.90;;;;;;4789155;29;19925;-71
2022/07/08 05:48:32;;;;;;;;;;;15.70;99.90;;;;;;4789991;29;19925;-69
2022/07/08 05:50:57;;;;;;;;;;;15.90;99.90;;;;;;4788695;30;19925;-70
2022/07/08 05:53:23;;;;;;;;;;;16.00;99.90;;;;;;4788864;29;19925;-74
2022/07/08 05:55:48;;;;;;;;;;;16.00;99.90;;;;;;4788709;30;19925;-72
2022/07/08 05:58:14;;;;;;;;;;;16.30;99.90;;;;;;4788849;29;19930;-73
2022/07/08 06:00:39;;;;;;;;;;;17.20;99.90;;;;;;4788696;30;19925;-71
2022/07/08 06:03:05;;;;;;;;;;;17.90;99.90;;;;;;4788760;29;19925;-72
2022/07/08 06:05:33;;;;;;;;;;;18.60;99.90;;;;;;4788855;30;20323;-72
2022/07/08 06:07:59;;;;;;;;;;;19.30;99.90;;;;;;4773812;30;20386;-70
2022/07/08 06:10:26;;;;;;;;;;;19.90;99.90;;;;;;4789777;30;19926;-72
2022/07/08 06:12:53;;;;;;;;;;;20.30;99.90;;;;;;4788693;29;20052;-73
2022/07/08 06:15:19;;;;;;;;;;;20.70;99.90;;;;;;4790084;29;19925;-71
2022/07/08 06:17:44;;;;;;;;;;;20.60;99.90;;;;;;4789362;29;19925;-73
2022/07/08 06:20:12;;;;;;;;;;;20.90;99.90;;;;;;4788833;29;19972;-73
2022/07/08 06:22:37;;;;;;;;;;;21.40;99.90;;;;;;4788336;30;19955;-71
2022/07/08 06:25:03;;;;;;;;;;;21.50;99.90;;;;;;4789177;30;19929;-71
2022/07/08 06:27:28;;;;;;;;;;;21.60;99.90;;;;;;4788169;29;19921;-72
2022/07/08 06:29:54;;;;;;;;;;;21.60;99.90;;;;;;4788315;29;19991;-72
2022/07/08 06:32:19;;;;;;;;;;;21.30;99.90;;;;;;4788047;29;20371;-72
2022/07/08 06:34:46;;;;;;;;;;;20.80;99.90;;;;;;4788567;30;19921;-72
2022/07/08 06:37:12;;;;;;;;;;;20.10;99.90;;;;;;4787149;29;20055;-72
2022/07/08 06:39:37;;;;;;;;;;;19.40;99.90;;;;;;4788063;29;20004;-73
2022/07/08 06:42:03;;;;;;;;;;;19.00;99.90;;;;;;4788207;30;20158;-73
2022/07/08 06:44:54;;;;;;;;;;;18.60;99.90;;;;;;4789463;29;19922;-71
2022/07/08 06:47:22;;;;;;;;;;;18.40;99.90;;;;;;4788807;29;19922;-73
2022/07/08 06:49:49;;;;;;;;;;;18.20;99.90;;;;;;4773294;30;19926;-70
2022/07/08 06:52:17;;;;;;;;;;;18.20;99.90;;;;;;4789015;29;20016;-71
2022/07/08 06:54:43;;;;;;;;;;;18.10;99.90;;;;;;4788121;29;19987;-71
2022/07/08 06:57:15;;;;;;;;;;;18.00;99.90;;;;;;4787586;29;20415;-70
2022/07/08 06:59:49;;;;;;;;;;;17.80;99.90;;;;;;4787598;29;20364;-72
2022/07/08 07:02:20;;;;;;;;;;;17.80;99.90;;;;;;4772758;30;20398;-71
2022/07/08 07:04:49;;;;;;;;;;;17.80;99.90;;;;;;4787860;30;19926;-73
2022/07/08 07:07:16;;;;;;;;;;;17.80;99.90;;;;;;4787898;29;19931;-74
2022/07/08 07:09:53;;;;;;;;;;;17.90;99.90;;;;;;4772698;30;19930;-72
2022/07/08 07:12:19;;;;;;;;;;;17.80;99.90;;;;;;4772879;30;19922;-69
2022/07/08 07:14:44;;;;;;;;;;;18.00;99.90;;;;;;4787748;30;19928;-74
2022/07/08 07:17:10;;;;;;;;;;;18.10;99.90;;;;;;4786993;29;19982;-71
2022/07/08 07:19:36;;;;;;;;;;;18.20;99.90;;;;;;4787320;30;19929;-71
2022/07/08 07:22:02;;;;;;;;;;;18.40;99.90;;;;;;4787347;29;19935;-72
2022/07/08 07:24:28;;;;;;;;;;;18.50;99.90;;;;;;4787265;29;20345;-70
2022/07/08 07:26:53;;;;;;;;;;;18.50;99.90;;;;;;4772275;30;19925;-72
2022/07/08 07:29:19;;;;;;;;;;;18.40;99.90;;;;;;4787159;29;19921;-69
2022/07/08 07:31:44;;;;;;;;;;;18.30;99.90;;;;;;4786820;29;20303;-70
2022/07/08 07:34:10;;;;;;;;;;;18.30;99.90;;;;;;4788376;29;20393;-71
2022/07/08 07:36:35;;;;;;;;;;;18.40;99.90;;;;;;4787624;29;19982;-71
2022/07/08 07:39:01;;;;;;;;;;;18.40;99.90;;;;;;4788625;30;20390;-70
2022/07/08 07:41:27;;;;;;;;;;;18.50;99.90;;;;;;4787205;29;19925;-71
2022/07/08 07:43:52;;;;;;;;;;;18.60;99.90;;;;;;4787316;29;19925;-70
2022/07/08 07:46:18;;;;;;;;;;;18.70;99.90;;;;;;4787277;29;20267;-70
2022/07/08 07:48:43;;;;;;;;;;;18.60;99.90;;;;;;4786282;29;19964;-71
2022/07/08 07:51:10;;;;;;;;;;;18.70;99.90;;;;;;4788121;29;20302;-73
2022/07/08 07:53:36;;;;;;;;;;;18.50;99.90;;;;;;4786731;29;20070;-71
2022/07/08 07:56:01;;;;;;;;;;;18.50;99.90;;;;;;4787068;29;19936;-72
2022/07/08 07:58:27;;;;;;;;;;;18.50;99.90;;;;;;4788111;29;20387;-72
2022/07/08 08:00:52;;;;;;;;;;;18.60;99.90;;;;;;4786783;29;19925;-71
2022/07/08 08:03:18;;;;;;;;;;;18.70;99.90;;;;;;4786836;29;19988;-72
2022/07/08 08:05:44;;;;;;;;;;;18.70;99.90;;;;;;4772099;30;19932;-72
2022/07/08 08:08:09;;;;;;;;;;;18.70;99.90;;;;;;4787150;29;20291;-69
2022/07/08 08:10:35;;;;;;;;;;;18.70;99.90;;;;;;4786722;29;19926;-70
2022/07/08 08:13:00;;;;;;;;;;;18.70;99.90;;;;;;4786905;29;20326;-72
2022/07/08 08:15:29;;;;;;;;;;;18.70;99.90;;;;;;4786671;29;19951;-71
2022/07/08 08:17:55;;;;;;;;;;;18.80;99.90;;;;;;4787796;29;19929;-70
2022/07/08 08:20:22;;;;;;;;;;;18.80;99.90;;;;;;4788553;29;20372;-72
2022/07/08 08:22:47;;;;;;;;;;;18.80;99.90;;;;;;4789855;29;19925;-72
2022/07/08 08:25:13;;;;;;;;;;;18.80;99.90;;;;;;4789630;29;19929;-72
2022/07/08 08:27:40;;;;;;;;;;;18.80;99.90;;;;;;4789841;29;19929;-71
2022/07/08 08:30:07;;;;;;;;;;;18.90;99.90;;;;;;4789653;29;19925;-70
2022/07/08 08:32:33;;;;;;;;;;;19.00;99.90;;;;;;4789414;29;19925;-70
2022/07/08 08:34:58;;;;;;;;;;;19.10;99.90;;;;;;4789785;29;19925;-71
2022/07/08 08:37:24;;;;;;;;;;;19.40;99.90;;;;;;4790064;29;19932;-70
2022/07/08 08:39:50;;;;;;;;;;;19.60;99.90;;;;;;4805981;29;19925;-71
2022/07/08 08:42:15;;;;;;;;;;;19.70;99.90;;;;;;4789833;29;19981;-72
2022/07/08 08:44:41;;;;;;;;;;;19.90;99.90;;;;;;4789688;29;19964;-73
2022/07/08 08:47:07;;;;;;;;;;;20.10;99.90;;;;;;4805519;29;19925;-72
2022/07/08 08:49:34;;;;;;;;;;;20.10;99.90;;;;;;4789592;29;20406;-72
2022/07/08 08:52:01;;;;;;;;;;;20.20;99.90;;;;;;4805575;29;20375;-70
2022/07/08 08:54:28;;;;;;;;;;;20.30;99.90;;;;;;4789680;29;20371;-70
2022/07/08 08:56:54;;;;;;;;;;;20.40;99.90;;;;;;4806110;29;19972;-72
2022/07/08 08:59:19;;;;;;;;;;;20.50;99.90;;;;;;4806388;29;19925;-70
2022/07/08 09:01:46;;;;;;;;;;;20.40;99.90;;;;;;4792626;29;20275;-73
2022/07/08 09:04:12;;;;;;;;;;;20.30;99.90;;;;;;4792934;29;19929;-73
2022/07/08 09:06:38;;;;;;;;;;;20.20;99.90;;;;;;4792610;29;20371;-71
2022/07/08 09:09:04;;;;;;;;;;;20.40;99.90;;;;;;4792808;29;19989;-72
2022/07/08 09:11:30;;;;;;;;;;;20.40;99.90;;;;;;4808753;29;19933;-70
2022/07/08 09:14:17;;;;;;;;;;;20.50;99.90;;;;;;4792768;29;19932;-71
2022/07/08 09:17:02;;;;;;;;;;;20.40;99.90;;;;;;4792079;29;19925;-70
2022/07/08 09:19:27;;;;;;;;;;;20.30;99.90;;;;;;4792667;29;20294;-72
2022/07/08 09:21:53;;;;;;;;;;;20.10;99.90;;;;;;4792420;29;19933;-73
2022/07/08 09:24:19;;;;;;;;;;;20.00;99.90;;;;;;4793079;29;19932;-73
2022/07/08 09:26:45;;;;;;;;;;;20.10;99.90;;;;;;4792606;29;20019;-71
2022/07/08 09:29:10;;;;;;;;;;;20.00;99.90;;;;;;4808836;29;20032;-71
2022/07/08 09:31:35;;;;;;;;;;;20.10;99.90;;;;;;4791954;29;19995;-72
2022/07/08 09:34:08;;;;;;;;;;;20.20;99.90;;;;;;4777381;29;19993;-70
2022/07/08 09:36:46;;;;;;;;;;;20.30;99.90;;;;;;4792141;29;19925;-72
2022/07/08 09:39:16;;;;;;;;;;;20.40;99.90;;;;;;4808218;29;20379;-71
2022/07/08 09:41:47;;;;;;;;;;;20.50;99.90;;;;;;4792363;29;19941;-74
2022/07/08 09:44:14;;;;;;;;;;;20.60;99.90;;;;;;4808520;29;19925;-73
2022/07/08 09:46:39;;;;;;;;;;;20.90;99.90;;;;;;4791919;29;19937;-71
2022/07/08 09:49:05;;;;;;;;;;;20.80;99.90;;;;;;4791851;29;20317;-73
2022/07/08 09:51:30;;;;;;;;;;;20.90;99.90;;;;;;4808208;29;19932;-71
2022/07/08 09:54:08;;;;;;;;;;;20.90;99.90;;;;;;4808301;29;20290;-71
2022/07/08 09:56:33;;;;;;;;;;;21.10;99.90;;;;;;4792096;29;19925;-74
2022/07/08 09:58:59;;;;;;;;;;;21.10;99.90;;;;;;4791909;29;20397;-71
2022/07/08 10:01:25;;;;;;;;;;;21.00;99.90;;;;;;4808273;29;19929;-74
2022/07/08 10:03:50;;;;;;;;;;;21.00;99.90;;;;;;4791436;29;19925;-72
2022/07/08 10:06:16;;;;;;;;;;;20.70;99.90;;;;;;4808185;29;20290;-71
2022/07/08 10:08:41;;;;;;;;;;;20.70;99.90;;;;;;4791824;29;20299;-71
2022/07/08 10:11:08;;;;;;;;;;;20.60;99.90;;;;;;4791910;29;19999;-71
2022/07/08 10:13:35;;;;;;;;;;;20.40;99.90;;;;;;4791481;29;19929;-71
2022/07/08 10:16:02;;;;;;;;;;;20.40;99.90;;;;;;4791555;29;19921;-73
2022/07/08 10:18:34;;;;;;;;;;;20.30;99.90;;;;;;4791021;29;19921;-73
2022/07/08 10:21:01;;;;;;;;;;;20.20;99.90;;;;;;4788358;29;19925;-71
2022/07/08 10:23:46;;;;;;;;;;;20.30;99.90;;;;;;4788737;29;19925;-71
2022/07/08 10:26:12;;;;;;;;;;;20.40;99.90;;;;;;4789221;29;20290;-71
2022/07/08 10:28:38;;;;;;;;;;;20.30;99.90;;;;;;4789748;29;20019;-71
2022/07/08 10:31:23;;;;;;;;;;;20.40;99.90;;;;;;4788695;30;19932;-73
2022/07/08 10:33:50;;;;;;;;;;;20.40;99.90;;;;;;4788031;29;19925;-72
2022/07/08 10:36:20;;;;;;;;;;;20.40;99.90;;;;;;4788211;29;19936;-71
2022/07/08 10:38:46;;;;;;;;;;;20.50;99.90;;;;;;4787956;29;19925;-70
2022/07/08 10:41:13;;;;;;;;;;;20.60;99.90;;;;;;4789666;29;19932;-73
2022/07/08 10:43:51;;;;;;;;;;;20.70;99.90;;;;;;4789340;29;19964;-71
2022/07/08 10:46:18;;;;;;;;;;;20.90;99.90;;;;;;4789555;29;19922;-71
2022/07/08 10:48:47;;;;;;;;;;;21.20;99.90;;;;;;4788807;29;19929;-73
2022/07/08 10:51:19;;;;;;;;;;;21.10;99.90;;;;;;4789125;29;20330;-72
2022/07/08 10:53:46;;;;;;;;;;;21.10;99.90;;;;;;4788947;29;19922;-73
2022/07/08 10:56:11;;;;;;;;;;;21.20;99.90;;;;;;4773030;30;19933;-73
2022/07/08 10:58:55;;;;;;;;;;;21.30;99.90;;;;;;4787696;29;19925;-71
2022/07/08 11:01:24;;;;;;;;;;;21.30;99.90;;;;;;4772719;29;19926;-71
2022/07/08 11:03:49;;;;;;;;;;;21.20;99.90;;;;;;4788734;29;19984;-71
2022/07/08 11:06:32;;;;;;;;;;;21.20;99.90;;;;;;4788886;29;19933;-71
2022/07/08 11:09:01;;;;;;;;;;;21.20;99.90;;;;;;4788047;29;20352;-72
2022/07/08 11:11:27;;;;;;;;;;;21.00;99.90;;;;;;4789441;29;19932;-71
2022/07/08 11:13:52;;;;;;;;;;;21.10;99.90;;;;;;4788790;29;19926;-73
2022/07/08 11:16:19;;;;;;;;;;;21.10;99.90;;;;;;4772730;30;19983;-72
2022/07/08 11:18:45;;;;;;;;;;;21.20;99.90;;;;;;4788564;29;20228;-72
2022/07/08 11:21:10;;;;;;;;;;;21.50;99.90;;;;;;4786736;29;19931;-73
2022/07/08 11:23:36;;;;;;;;;;;21.40;99.90;;;;;;4788354;29;19936;-73
2022/07/08 11:26:02;;;;;;;;;;;21.50;99.90;;;;;;4802824;29;19929;-74
2022/07/08 11:28:27;;;;;;;;;;;21.70;99.90;;;;;;4802171;29;19926;-73
2022/07/08 11:30:53;;;;;;;;;;;21.70;99.90;;;;;;4802844;29;20033;-73
2022/07/08 11:33:18;;;;;;;;;;;21.80;99.90;;;;;;4801967;29;19957;-74
2022/07/08 11:35:44;;;;;;;;;;;22.00;99.90;;;;;;4802411;29;19948;-74
2022/07/08 11:38:09;;;;;;;;;;;22.10;99.90;;;;;;4802324;29;19932;-72
2022/07/08 11:40:42;;;;;;;;;;;22.20;99.90;;;;;;4788589;29;19975;-74
2022/07/08 11:43:28;;;;;;;;;;;22.20;99.90;;;;;;4788698;29;19948;-73
2022/07/08 11:45:53;;;;;;;;;;;22.50;99.90;;;;;;4786948;29;19921;-74
2022/07/08 11:48:19;;;;;;;;;;;22.70;99.90;;;;;;4788059;29;19944;-74
2022/07/08 11:50:52;;;;;;;;;;;22.80;99.90;;;;;;4802004;29;20394;-75
2022/07/08 11:53:21;;;;;;;;;;;22.80;99.90;;;;;;4802437;29;19948;-74
2022/07/08 11:55:47;;;;;;;;;;;23.00;99.90;;;;;;4803011;29;19926;-75
2022/07/08 11:58:20;;;;;;;;;;;23.00;99.90;;;;;;4802117;29;19977;-73
2022/07/08 12:00:46;;;;;;;;;;;23.20;99.90;;;;;;4787477;29;19926;-72
2022/07/08 12:03:13;;;;;;;;;;;23.30;99.90;;;;;;4801638;29;20019;-72
2022/07/08 12:05:38;;;;;;;;;;;23.60;99.90;;;;;;4802553;29;19922;-74
2022/07/08 12:08:10;;;;;;;;;;;23.50;99.90;;;;;;4787206;29;20467;-74
2022/07/08 12:10:36;;;;;;;;;;;23.30;99.90;;;;;;4786672;29;19921;-73
2022/07/08 12:13:01;;;;;;;;;;;23.40;99.90;;;;;;4801608;29;19936;-73
2022/07/08 12:15:36;;;;;;;;;;;23.50;99.90;;;;;;4788280;29;20067;-75
2022/07/08 12:18:03;;;;;;;;;;;23.40;99.90;;;;;;4785469;29;20074;-74
2022/07/08 12:20:32;;;;;;;;;;;23.20;99.90;;;;;;4801777;29;20035;-74
2022/07/08 12:22:58;;;;;;;;;;;23.00;99.90;;;;;;4802398;29;20344;-72
2022/07/08 12:25:23;;;;;;;;;;;23.10;99.90;;;;;;4788217;29;19925;-74
2022/07/08 12:28:01;;;;;;;;;;;23.20;99.90;;;;;;4801974;29;19925;-73
2022/07/08 12:30:28;;;;;;;;;;;23.20;99.90;;;;;;4786593;30;20438;-75
2022/07/08 12:32:57;;;;;;;;;;;23.10;99.90;;;;;;4800932;29;19933;-72
2022/07/08 12:35:29;;;;;;;;;;;22.80;99.90;;;;;;4790213;29;20172;-73
2022/07/08 12:38:05;;;;;;;;;;;22.70;99.90;;;;;;4791450;29;19998;-73
2022/07/08 12:40:40;;;;;;;;;;;22.40;99.90;;;;;;4790484;30;19978;-75
2022/07/08 12:43:07;;;;;;;;;;;22.40;99.90;;;;;;4805069;29;19925;-75
2022/07/08 12:45:33;;;;;;;;;;;22.70;99.90;;;;;;4791538;29;19932;-73
2022/07/08 12:47:58;;;;;;;;;;;23.00;99.90;;;;;;4789751;30;19926;-73
2022/07/08 12:50:24;;;;;;;;;;;23.30;99.90;;;;;;4805188;29;20352;-75
2022/07/08 12:52:50;;;;;;;;;;;23.30;99.90;;;;;;4805193;29;19926;-74
2022/07/08 12:55:16;;;;;;;;;;;23.30;99.90;;;;;;4791441;29;19936;-73
2022/07/08 12:57:42;;;;;;;;;;;23.00;99.90;;;;;;4790033;30;20267;-74
2022/07/08 13:00:08;;;;;;;;;;;23.00;99.90;;;;;;4805135;29;19925;-72
2022/07/08 13:02:33;;;;;;;;;;;23.20;99.90;;;;;;4804472;29;19975;-75
2022/07/08 13:04:59;;;;;;;;;;;23.40;99.90;;;;;;4791276;29;19996;-74
2022/07/08 13:07:24;;;;;;;;;;;23.70;99.90;;;;;;4804962;29;19932;-75
2022/07/08 13:09:50;;;;;;;;;;;23.90;99.90;;;;;;4804695;29;19937;-74
2022/07/08 13:12:16;;;;;;;;;;;24.10;99.90;;;;;;4804727;29;19934;-75
2022/07/08 13:14:41;;;;;;;;;;;24.30;99.90;;;;;;4789917;30;19925;-73
2022/07/08 13:17:07;;;;;;;;;;;24.30;99.90;;;;;;4789351;29;19925;-73
2022/07/08 13:19:32;;;;;;;;;;;24.20;99.90;;;;;;4791035;29;19926;-74
2022/07/08 13:22:00;;;;;;;;;;;24.10;99.90;;;;;;4789225;29;19932;-72
2022/07/08 13:24:25;;;;;;;;;;;24.00;99.90;;;;;;4804954;29;19925;-73
2022/07/08 13:26:50;;;;;;;;;;;23.90;99.90;;;;;;4804489;29;19933;-75
2022/07/08 13:29:16;;;;;;;;;;;23.90;99.90;;;;;;4790843;29;19993;-73
2022/07/08 13:31:41;;;;;;;;;;;23.90;99.90;;;;;;4803789;29;19971;-73
2022/07/08 13:34:07;;;;;;;;;;;23.90;99.90;;;;;;4804555;29;19925;-73
2022/07/08 13:36:32;;;;;;;;;;;23.90;99.90;;;;;;4804745;29;20012;-74
2022/07/08 13:38:58;;;;;;;;;;;23.80;99.90;;;;;;4790353;29;20032;-75
2022/07/08 13:41:29;;;;;;;;;;;23.90;99.90;;;;;;4789485;29;20044;-75
2022/07/08 13:43:58;;;;;;;;;;;23.80;99.90;;;;;;4789050;29;19976;-75
2022/07/08 13:46:24;;;;;;;;;;;23.90;99.90;;;;;;4804054;29;19925;-76
2022/07/08 13:48:51;;;;;;;;;;;24.00;99.90;;;;;;4788592;29;19929;-73
2022/07/08 13:51:16;;;;;;;;;;;23.90;99.90;;;;;;4789120;29;19929;-74
2022/07/08 13:53:42;;;;;;;;;;;23.70;99.90;;;;;;4803871;29;20317;-75
2022/07/08 13:56:07;;;;;;;;;;;23.60;99.90;;;;;;4803999;29;20304;-74
2022/07/08 13:58:33;;;;;;;;;;;23.40;99.90;;;;;;4788674;29;19982;-73
2022/07/08 14:00:59;;;;;;;;;;;23.30;99.90;;;;;;4804168;29;19937;-74
2022/07/08 14:03:25;;;;;;;;;;;23.20;99.90;;;;;;4789710;29;20268;-75
2022/07/08 14:05:50;;;;;;;;;;;23.10;99.90;;;;;;4804279;29;19932;-74
2022/07/08 14:08:16;;;;;;;;;;;23.10;99.90;;;;;;4803516;29;19930;-74
2022/07/08 14:10:41;;;;;;;;;;;23.20;99.90;;;;;;4788637;29;19925;-72
2022/07/08 14:13:07;;;;;;;;;;;23.20;99.90;;;;;;4789112;29;19932;-74